createdAt,value
2019-04-22T00:02:02.408Z,99.90
2019-04-22T00:04:42.096Z,99.90
2019-04-22T00:07:22.982Z,99.90
2019-04-22T00:09:58.321Z,99.90
2019-04-22T00:12:32.786Z,99.90
2019-04-22T00:14:54.239Z,99.90
2019-04-22T00:17:38.844Z,99.90
2019-04-22T00:20:04.960Z,99.90
2019-04-22T00:22:29.167Z,99.90
2019-04-22T00:25:01.131Z,99.90
2019-04-22T00:27:35.628Z,99.90
2019-04-22T00:30:07.264Z,99.90
2019-04-22T00:32:38.262Z,99.90
2019-04-22T00:35:13.302Z,99.90
2019-04-22T00:37:43.825Z,99.90
2019-04-22T00:40:19.762Z,99.90
2019-04-22T00:42:47.217Z,99.90
2019-04-22T00:45:24.351Z,99.90
2019-04-22T00:47:43.387Z,99.90
2019-04-22T00:50:20.318Z,99.90
2019-04-22T00:52:50.922Z,99.90
2019-04-22T00:55:23.041Z,99.90
2019-04-22T00:58:00.111Z,99.90
2019-04-22T01:00:25.090Z,99.90
2019-04-22T01:02:57.070Z,99.90
2019-04-22T01:05:32.471Z,99.90
2019-04-22T01:08:04.391Z,99.90
2019-04-22T01:12:56.763Z,99.90
2019-04-22T01:15:28.909Z,99.90
2019-04-22T01:17:57.775Z,99.90
2019-04-22T01:20:58.927Z,99.90
2019-04-22T01:22:58.587Z,99.90
2019-04-22T01:25:34.869Z,99.90
2019-04-22T01:27:57.168Z,99.90
2019-04-22T01:30:25.888Z,99.90
2019-04-22T01:32:47.298Z,99.90
2019-04-22T01:35:31.026Z,99.90
2019-04-22T01:38:03.192Z,99.90
2019-04-22T01:40:45.526Z,99.90
2019-04-22T01:43:16.785Z,99.90
2019-04-22T01:45:49.871Z,99.90
2019-04-22T01:48:17.744Z,99.90
2019-04-22T01:50:48.532Z,99.90
2019-04-22T01:53:24.543Z,99.90
2019-04-22T01:58:10.872Z,99.90
2019-04-22T02:00:53.762Z,99.90
2019-04-22T02:03:27.842Z,99.90
2019-04-22T02:05:56.707Z,99.90
2019-04-22T02:08:31.393Z,99.90
2019-04-22T02:10:57.641Z,99.90
2019-04-22T02:13:26.891Z,99.90
2019-04-22T02:16:03.533Z,99.90
2019-04-22T02:18:31.795Z,99.90
2019-04-22T02:20:55.336Z,99.90
2019-04-22T02:28:52.412Z,99.90
2019-04-22T02:31:25.611Z,99.90
2019-04-22T02:49:11.679Z,99.90
2019-04-22T02:59:04.198Z,99.90
2019-04-22T03:11:52.540Z,99.90
2019-04-22T03:14:04.745Z,99.90
2019-04-22T03:16:40.595Z,99.90
2019-04-22T03:19:17.767Z,99.90
2019-04-22T03:21:37.591Z,99.90
2019-04-22T03:24:25.573Z,99.90
2019-04-22T03:26:45.792Z,99.90
2019-04-22T03:29:28.737Z,99.90
2019-04-22T03:32:32.684Z,99.90
2019-04-22T03:39:44.835Z,99.90
2019-04-22T03:42:07.849Z,99.90
2019-04-22T03:44:38.866Z,99.90
2019-04-22T03:49:51.907Z,99.90
2019-04-22T03:52:16.287Z,99.90
2019-04-22T03:54:49.902Z,99.90
2019-04-22T03:57:36.924Z,99.90
2019-04-22T04:02:21.389Z,99.90
2019-04-22T04:04:43.577Z,99.90
2019-04-22T04:09:50.000Z,99.90
2019-04-22T04:14:53.978Z,99.90
2019-04-22T04:17:34.787Z,99.90
2019-04-22T04:20:06.198Z,99.90
2019-04-22T04:25:14.760Z,99.90
2019-04-22T04:30:05.513Z,99.90
2019-04-22T04:40:20.676Z,99.90
2019-04-22T04:52:57.689Z,99.90
2019-04-22T04:55:18.500Z,99.90
2019-04-22T04:57:49.111Z,99.90
2019-04-22T05:07:55.400Z,99.80
2019-04-22T05:12:55.737Z,94.30
2019-04-22T05:20:24.225Z,90.00
2019-04-22T05:27:46.372Z,81.00
2019-04-22T05:35:20.729Z,74.90
2019-04-22T05:37:51.300Z,71.80
2019-04-22T05:42:49.452Z,65.00
2019-04-22T05:45:21.628Z,66.70
2019-04-22T05:47:51.908Z,66.70
2019-04-22T05:52:55.413Z,65.50
2019-04-22T05:55:32.380Z,60.70
2019-04-22T05:57:57.751Z,58.40
2019-04-22T06:08:08.250Z,53.30
2019-04-22T06:10:39.255Z,51.80
2019-04-22T06:13:01.011Z,52.30
2019-04-22T06:15:36.312Z,53.10
2019-04-22T06:18:15.982Z,50.50
2019-04-22T06:20:53.748Z,49.60
2019-04-22T06:23:30.723Z,50.60
2019-04-22T06:26:04.900Z,50.30
2019-04-22T06:28:29.078Z,50.30
2019-04-22T06:30:57.351Z,51.90
2019-04-22T06:33:31.557Z,49.30
2019-04-22T06:35:56.443Z,50.00
2019-04-22T06:38:42.649Z,50.60
2019-04-22T06:41:04.526Z,49.50
2019-04-22T06:43:29.594Z,50.60
2019-04-22T06:46:02.157Z,49.30
2019-04-22T06:48:33.105Z,47.70
2019-04-22T06:51:00.113Z,47.60
2019-04-22T06:53:37.287Z,49.90
2019-04-22T06:56:05.130Z,49.20
2019-04-22T06:58:36.655Z,47.90
2019-04-22T07:01:09.491Z,48.20
2019-04-22T07:03:42.761Z,50.40
2019-04-22T07:06:29.626Z,50.60
2019-04-22T07:09:09.364Z,49.10
2019-04-22T07:11:05.767Z,49.00
2019-04-22T07:13:43.483Z,50.20
2019-04-22T07:16:13.340Z,50.00
2019-04-22T07:18:45.208Z,50.40
2019-04-22T07:21:12.613Z,50.80
2019-04-22T07:23:51.360Z,50.50
2019-04-22T07:26:21.957Z,51.50
2019-04-22T07:28:46.707Z,52.10
2019-04-22T07:31:16.248Z,50.60
2019-04-22T07:34:12.870Z,51.60
2019-04-22T07:36:39.733Z,51.40
2019-04-22T07:38:43.841Z,50.10
2019-04-22T07:41:25.941Z,54.90
2019-04-22T07:44:08.978Z,52.60
2019-04-22T07:46:28.670Z,52.00
2019-04-22T07:49:10.867Z,53.20
2019-04-22T07:51:28.120Z,50.90
2019-04-22T07:53:57.358Z,52.10
2019-04-22T07:56:29.274Z,51.80
2019-04-22T07:58:55.838Z,52.20
2019-04-22T08:01:41.832Z,50.00
2019-04-22T08:06:31.339Z,51.40
2019-04-22T08:09:08.032Z,50.40
2019-04-22T08:11:43.806Z,50.90
2019-04-22T08:14:07.581Z,51.30
2019-04-22T08:16:37.080Z,52.90
2019-04-22T08:19:09.110Z,52.60
2019-04-22T08:21:38.461Z,53.00
2019-04-22T08:24:07.955Z,49.00
2019-04-22T08:26:42.130Z,50.80
2019-04-22T08:29:17.987Z,52.70
2019-04-22T08:31:43.648Z,51.80
2019-04-22T08:34:14.210Z,50.50
2019-04-22T08:36:58.912Z,50.70
2019-04-22T08:39:23.151Z,52.40
2019-04-22T08:41:43.514Z,49.20
2019-04-22T08:44:26.135Z,52.00
2019-04-22T08:46:48.593Z,52.00
2019-04-22T08:49:16.036Z,50.40
2019-04-22T08:51:49.073Z,51.00
2019-04-22T08:54:24.492Z,52.10
2019-04-22T08:56:58.259Z,53.40
2019-04-22T08:59:22.216Z,50.00
2019-04-22T09:01:57.430Z,51.40
2019-04-22T09:04:22.824Z,50.90
2019-04-22T09:07:21.219Z,49.80
2019-04-22T09:09:36.179Z,50.80
2019-04-22T09:12:00.001Z,48.20
2019-04-22T09:14:40.515Z,49.60
2019-04-22T09:17:10.176Z,48.90
2019-04-22T09:19:38.767Z,48.10
2019-04-22T09:24:40.795Z,49.50
2019-04-22T09:29:43.219Z,49.60
2019-04-22T09:32:14.266Z,45.80
2019-04-22T09:34:47.318Z,46.80
2019-04-22T09:39:53.392Z,48.70
2019-04-22T09:42:22.003Z,49.50
2019-04-22T09:44:49.169Z,48.10
2019-04-22T09:47:20.555Z,46.00
2019-04-22T09:49:55.258Z,45.30
2019-04-22T09:57:21.787Z,45.40
2019-04-22T09:59:57.757Z,43.90
2019-04-22T10:02:33.921Z,43.60
2019-04-22T10:07:27.024Z,46.40
2019-04-22T10:10:15.062Z,47.20
2019-04-22T10:12:33.815Z,46.20
2019-04-22T10:14:53.937Z,48.10
2019-04-22T10:17:32.445Z,46.10
2019-04-22T10:20:01.072Z,45.00
2019-04-22T10:25:08.264Z,46.80
2019-04-22T10:27:32.460Z,46.30
2019-04-22T10:30:06.062Z,45.60
2019-04-22T10:32:38.137Z,44.70
2019-04-22T10:35:04.956Z,45.70
2019-04-22T10:37:32.166Z,44.10
2019-04-22T10:40:04.774Z,44.60
2019-04-22T10:42:41.009Z,46.70
2019-04-22T10:45:12.372Z,43.80
2019-04-22T10:47:42.387Z,45.00
2019-04-22T10:50:14.440Z,43.90
2019-04-22T10:52:43.941Z,44.70
2019-04-22T10:55:13.838Z,44.80
2019-04-22T10:57:44.406Z,43.90
2019-04-22T11:00:15.623Z,46.20
2019-04-22T11:02:45.687Z,48.10
2019-04-22T11:05:16.711Z,44.50
2019-04-22T11:07:51.859Z,49.50
2019-04-22T11:10:33.528Z,46.50
2019-04-22T11:12:49.309Z,46.40
2019-04-22T11:15:18.811Z,45.20
2019-04-22T11:17:49.594Z,44.90
2019-04-22T11:20:21.793Z,46.80
2019-04-22T11:22:51.212Z,43.90
2019-04-22T11:25:21.675Z,43.00
2019-04-22T11:27:51.443Z,42.50
2019-04-22T11:30:24.056Z,49.10
2019-04-22T11:32:51.986Z,46.90
2019-04-22T11:35:21.827Z,47.90
2019-04-22T11:37:52.444Z,45.10
2019-04-22T11:40:28.778Z,44.90
2019-04-22T11:42:54.381Z,46.90
2019-04-22T11:45:24.028Z,42.80
2019-04-22T11:47:53.509Z,46.10
2019-04-22T11:50:24.227Z,43.90
2019-04-22T11:52:55.009Z,45.70
2019-04-22T11:55:24.738Z,44.80
2019-04-22T11:57:54.137Z,44.40
2019-04-22T12:00:36.817Z,45.80
2019-04-22T12:03:07.294Z,45.60
2019-04-22T12:05:37.608Z,48.80
2019-04-22T12:08:09.262Z,46.00
2019-04-22T12:10:46.865Z,47.10
2019-04-22T12:13:10.306Z,45.40
2019-04-22T12:15:40.821Z,42.60
2019-04-22T12:18:11.199Z,45.60
2019-04-22T12:20:41.462Z,45.70
2019-04-22T12:23:11.133Z,45.60
2019-04-22T12:25:51.713Z,44.90
2019-04-22T12:28:13.192Z,47.10
2019-04-22T12:30:43.521Z,45.50
2019-04-22T12:33:14.917Z,49.90
2019-04-22T12:35:44.405Z,49.90
2019-04-22T12:38:15.254Z,46.60
2019-04-22T12:40:52.507Z,47.50
2019-04-22T12:43:18.595Z,46.30
2019-04-22T12:45:47.953Z,48.90
2019-04-22T12:48:17.426Z,48.20
2019-04-22T12:50:50.044Z,46.40
2019-04-22T12:53:20.546Z,47.20
2019-04-22T12:55:50.184Z,46.70
2019-04-22T12:58:20.053Z,47.00
2019-04-22T13:00:51.444Z,46.90
2019-04-22T13:03:20.510Z,46.70
2019-04-22T13:05:51.412Z,46.60
2019-04-22T13:08:20.991Z,46.50
2019-04-22T13:10:58.419Z,46.60
2019-04-22T13:13:22.929Z,44.20
2019-04-22T13:15:53.092Z,46.80
2019-04-22T13:18:31.882Z,46.30
2019-04-22T13:20:54.628Z,48.60
2019-04-22T13:23:25.438Z,48.00
2019-04-22T13:25:54.934Z,46.40
2019-04-22T13:28:25.185Z,45.70
2019-04-22T13:30:54.813Z,44.70
2019-04-22T13:33:25.033Z,44.10
2019-04-22T13:35:54.455Z,44.50
2019-04-22T13:38:24.995Z,44.70
2019-04-22T13:41:07.285Z,42.90
2019-04-22T13:43:26.746Z,45.80
2019-04-22T13:45:56.516Z,47.20
2019-04-22T13:48:46.889Z,42.90
2019-04-22T13:54:37.135Z,42.70
2019-04-22T13:56:19.345Z,45.10
2019-04-22T13:58:44.800Z,43.60
2019-04-22T14:01:06.938Z,42.10
2019-04-22T14:03:54.641Z,45.90
2019-04-22T14:06:25.044Z,46.00
2019-04-22T14:08:55.689Z,44.90
2019-04-22T14:11:32.361Z,44.80
2019-04-22T14:13:56.724Z,44.30
2019-04-22T14:16:27.022Z,43.40
2019-04-22T14:18:57.997Z,42.90
2019-04-22T14:21:27.543Z,42.20
2019-04-22T14:23:58.401Z,42.80
2019-04-22T14:26:41.347Z,44.20
2019-04-22T14:28:59.976Z,44.10
2019-04-22T14:31:30.769Z,41.60
2019-04-22T14:34:04.970Z,42.80
2019-04-22T14:36:31.187Z,44.90
2019-04-22T14:39:01.924Z,41.90
2019-04-22T14:41:43.532Z,42.50
2019-04-22T14:45:07.201Z,46.30
2019-04-22T14:47:05.559Z,43.90
2019-04-22T14:49:35.469Z,45.60
2019-04-22T14:51:55.065Z,42.30
2019-04-22T14:54:24.205Z,44.60
2019-04-22T14:56:38.276Z,44.10
2019-04-22T14:59:09.185Z,45.00
2019-04-22T15:01:41.419Z,46.70
2019-04-22T15:04:10.902Z,44.50
2019-04-22T15:06:43.110Z,45.30
2019-04-22T15:09:12.230Z,46.20
2019-04-22T15:11:52.808Z,46.30
2019-04-22T15:14:12.680Z,45.80
2019-04-22T15:17:00.799Z,45.60
2019-04-22T15:19:52.019Z,48.40
2019-04-22T15:22:22.752Z,41.90
2019-04-22T15:24:52.399Z,41.90
2019-04-22T15:27:22.584Z,41.80
2019-04-22T15:29:53.570Z,43.40
2019-04-22T15:32:23.356Z,43.80
2019-04-22T15:34:53.399Z,43.70
2019-04-22T15:37:24.256Z,43.30
2019-04-22T15:39:56.307Z,46.60
2019-04-22T15:42:28.845Z,46.80
2019-04-22T15:44:55.961Z,44.30
2019-04-22T15:47:26.926Z,45.40
2019-04-22T15:49:56.359Z,46.20
2019-04-22T15:52:33.413Z,45.60
2019-04-22T15:54:56.723Z,45.60
2019-04-22T15:57:26.646Z,43.30
2019-04-22T16:00:10.648Z,45.80
2019-04-22T16:02:27.806Z,44.00
2019-04-22T16:04:58.768Z,45.80
2019-04-22T16:07:29.614Z,46.10
2019-04-22T16:09:59.633Z,45.20
2019-04-22T16:12:38.858Z,41.50
2019-04-22T16:15:03.077Z,44.20
2019-04-22T16:17:32.675Z,46.50
2019-04-22T16:20:03.529Z,46.40
2019-04-22T16:22:52.040Z,49.10
2019-04-22T16:25:45.107Z,49.70
2019-04-22T16:28:15.457Z,48.70
2019-04-22T16:30:45.534Z,48.30
2019-04-22T16:33:15.242Z,49.00
2019-04-22T16:35:44.997Z,49.70
2019-04-22T16:38:15.081Z,51.00
2019-04-22T16:40:44.983Z,51.40
2019-04-22T16:43:14.444Z,51.10
2019-04-22T16:45:43.780Z,52.30
2019-04-22T16:48:13.692Z,51.40
2019-04-22T16:50:45.026Z,51.60
2019-04-22T16:53:14.280Z,52.60
2019-04-22T16:55:44.682Z,52.60
2019-04-22T16:58:14.872Z,51.10
2019-04-22T17:00:45.195Z,51.10
2019-04-22T17:03:46.818Z,50.90
2019-04-22T17:06:19.420Z,51.70
2019-04-22T17:08:48.944Z,51.30
2019-04-22T17:11:18.296Z,52.10
2019-04-22T17:13:48.117Z,51.90
2019-04-22T17:16:20.068Z,52.70
2019-04-22T17:18:50.053Z,52.80
2019-04-22T17:21:19.747Z,52.80
2019-04-22T17:23:49.874Z,53.10
2019-04-22T17:26:20.611Z,53.20
2019-04-22T17:28:51.321Z,52.70
2019-04-22T17:31:20.752Z,54.30
2019-04-22T17:33:50.816Z,53.40
2019-04-22T17:36:20.333Z,54.00
2019-04-22T17:38:59.933Z,54.30
2019-04-22T17:41:28.561Z,53.90
2019-04-22T17:44:18.967Z,54.10
2019-04-22T17:46:51.365Z,54.00
2019-04-22T17:49:37.404Z,53.60
2019-04-22T17:52:21.216Z,54.20
2019-04-22T17:54:50.444Z,54.50
2019-04-22T17:57:22.533Z,55.00
2019-04-22T17:59:50.594Z,55.00
2019-04-22T18:02:24.202Z,55.50
2019-04-22T18:04:44.984Z,55.70
2019-04-22T18:07:35.613Z,55.00
2019-04-22T18:10:24.325Z,55.50
2019-04-22T18:15:07.134Z,56.70
2019-04-22T18:17:35.166Z,56.50
2019-04-22T18:20:00.335Z,56.40
2019-04-22T18:22:21.867Z,56.80
2019-04-22T18:24:58.382Z,55.70
2019-04-22T18:27:45.715Z,55.60
2019-04-22T18:30:01.947Z,56.20
2019-04-22T18:32:32.645Z,56.00
2019-04-22T18:35:07.334Z,55.80
2019-04-22T18:37:40.297Z,55.40
2019-04-22T18:40:12.011Z,55.10
2019-04-22T18:42:32.759Z,55.30
2019-04-22T18:45:34.448Z,55.70
2019-04-22T18:47:38.734Z,55.80
2019-04-22T18:50:08.589Z,56.10
2019-04-22T18:53:11.019Z,56.20
2019-04-22T18:55:44.571Z,56.20
2019-04-22T18:58:16.832Z,56.00
2019-04-22T19:00:36.218Z,56.00
2019-04-22T19:03:14.168Z,56.80
2019-04-22T19:06:02.606Z,56.80
2019-04-22T19:08:31.664Z,57.40
2019-04-22T19:16:19.624Z,57.70
2019-04-22T19:18:41.822Z,58.10
2019-04-22T19:21:37.997Z,58.20
2019-04-22T19:23:40.681Z,58.00
2019-04-22T19:26:11.906Z,58.20
2019-04-22T19:28:42.380Z,59.00
2019-04-22T19:31:17.266Z,59.10
2019-04-22T19:33:40.538Z,59.50
2019-04-22T19:36:14.950Z,59.60
2019-04-22T19:38:31.273Z,59.40
2019-04-22T19:41:21.301Z,60.30
2019-04-22T19:43:47.278Z,60.00
2019-04-22T19:46:15.180Z,60.00
2019-04-22T19:48:50.022Z,61.10
2019-04-22T19:51:25.142Z,61.30
2019-04-22T19:53:52.417Z,61.90
2019-04-22T19:56:17.538Z,61.70
2019-04-22T19:58:47.699Z,62.20
2019-04-22T20:01:48.560Z,62.30
2019-04-22T20:04:37.776Z,62.10
2019-04-22T20:07:24.829Z,62.40
2019-04-22T20:09:55.350Z,63.30
2019-04-22T20:12:21.332Z,63.40
2019-04-22T20:14:54.506Z,63.10
2019-04-22T20:17:26.648Z,63.80
2019-04-22T20:20:18.176Z,63.70
2019-04-22T20:22:25.978Z,63.30
2019-04-22T20:24:47.146Z,64.20
2019-04-22T20:27:31.710Z,64.90
2019-04-22T20:30:04.600Z,64.90
2019-04-22T20:32:32.669Z,65.60
2019-04-22T20:35:02.985Z,65.60
2019-04-22T20:37:38.556Z,66.20
2019-04-22T20:40:05.486Z,66.70
2019-04-22T20:42:43.716Z,66.70
2019-04-22T20:45:09.591Z,67.50
2019-04-22T20:47:31.962Z,67.50
2019-04-22T20:50:14.362Z,67.80
2019-04-22T20:52:46.873Z,67.20
2019-04-22T20:55:08.200Z,67.80
2019-04-22T20:57:48.002Z,67.80
2019-04-22T21:00:08.980Z,68.00
2019-04-22T21:02:36.274Z,68.50
2019-04-22T21:05:04.277Z,68.40
2019-04-22T21:07:38.719Z,68.80
2019-04-22T21:10:11.432Z,68.70
2019-04-22T21:12:39.686Z,68.30
2019-04-22T21:15:29.867Z,68.80
2019-04-22T21:17:50.944Z,69.40
2019-04-22T21:20:26.121Z,69.00
2019-04-22T21:22:55.218Z,69.20
2019-04-22T21:25:19.599Z,69.40
2019-04-22T21:27:59.808Z,68.70
2019-04-22T21:30:29.165Z,68.70
2019-04-22T21:32:54.824Z,69.70
2019-04-22T21:35:47.469Z,69.40
2019-04-22T21:38:01.877Z,69.60
2019-04-22T21:40:35.566Z,69.00
2019-04-22T21:43:10.694Z,69.40
2019-04-22T21:45:27.817Z,69.70
2019-04-22T21:53:14.575Z,69.40
2019-04-22T21:55:43.538Z,70.40
2019-04-22T21:58:19.519Z,69.40
2019-04-22T22:01:06.424Z,69.10
2019-04-22T22:03:38.439Z,69.50
2019-04-22T22:05:58.846Z,69.50
2019-04-22T22:08:40.230Z,69.50
2019-04-22T22:11:06.487Z,68.90
2019-04-22T22:13:38.707Z,69.10
2019-04-22T22:16:06.627Z,69.50
2019-04-22T22:18:34.995Z,68.90
2019-04-22T22:21:28.253Z,69.00
2019-04-22T22:23:45.650Z,69.70
2019-04-22T22:26:09.399Z,68.90
2019-04-22T22:28:52.185Z,69.80
2019-04-22T22:31:24.765Z,70.00
2019-04-22T22:33:49.670Z,71.10
2019-04-22T22:36:13.679Z,71.30
2019-04-22T22:38:45.645Z,72.10
2019-04-22T22:41:00.143Z,72.30
2019-04-22T22:43:34.968Z,72.30
2019-04-22T22:46:12.346Z,72.90
2019-04-22T22:48:52.033Z,72.80
2019-04-22T22:51:27.433Z,73.50
2019-04-22T22:53:58.134Z,73.40
2019-04-22T22:56:28.859Z,73.80
2019-04-22T22:59:01.863Z,74.10
2019-04-22T23:01:29.936Z,75.30
2019-04-22T23:03:57.080Z,74.30
2019-04-22T23:06:36.975Z,74.70
2019-04-22T23:09:05.701Z,74.70
2019-04-22T23:11:53.762Z,74.90
2019-04-22T23:14:02.448Z,75.00
2019-04-22T23:16:22.230Z,76.10
2019-04-22T23:19:02.741Z,75.40
2019-04-22T23:21:39.738Z,75.90
2019-04-22T23:24:33.180Z,75.60
2019-04-22T23:27:03.134Z,76.10
2019-04-22T23:29:57.484Z,76.90
2019-04-22T23:32:26.944Z,76.30
2019-04-22T23:35:10.441Z,76.70
2019-04-22T23:37:39.403Z,75.80
2019-04-22T23:40:24.382Z,77.00
2019-04-22T23:42:44.638Z,77.40
2019-04-22T23:45:14.019Z,77.30
2019-04-22T23:47:39.082Z,77.70
2019-04-22T23:50:24.344Z,78.00
2019-04-22T23:52:58.858Z,78.60
2019-04-22T23:55:35.419Z,79.60
2019-04-22T23:58:05.087Z,79.80
